Time;durP1;ratioP1;P1;durP2;ratioP2;P2;SDS_P1;SDS_P2;PMS_P1;PMS_P2;Temp;Humidity;BMP_temperature;BMP_pressure;BME280_temperature;BME280_humidity;BME280_pressure;Samples;Min_cycle;Max_cycle;Signal;HPM_P1;HPM_P2
2024/01/30 00:01:40;;;;;;;35.00;25.23;;;;;;;;;;10089119;28;20403;-79
2024/01/30 00:06:32;;;;;;;33.95;25.30;;;;;;;;;;10102957;28;20037;-79
2024/01/30 00:11:28;;;;;;;36.78;26.85;;;;;;;;;;10069644;28;20753;-79
2024/01/30 00:16:24;;;;;;;31.83;22.85;;;;;;;;;;10095725;28;20041;-78
2024/01/30 00:21:16;;;;;;;36.83;26.38;;;;;;;;;;10089405;28;20053;-79
2024/01/30 00:26:08;;;;;;;34.40;25.05;;;;;;;;;;10095223;28;20091;-78
2024/01/30 00:31:00;;;;;;;31.70;23.40;;;;;;;;;;10101104;28;20108;-77
2024/01/30 00:35:52;;;;;;;30.00;23.52;;;;;;;;;;10088696;28;20492;-78
2024/01/30 00:40:43;;;;;;;33.80;25.27;;;;;;;;;;10105492;28;20094;-78
2024/01/30 00:45:35;;;;;;;36.58;25.27;;;;;;;;;;10104022;28;20063;-77
2024/01/30 00:50:27;;;;;;;34.17;25.58;;;;;;;;;;10105202;28;20045;-77
2024/01/30 00:55:19;;;;;;;28.17;22.33;;;;;;;;;;10104747;28;20092;-77
2024/01/30 01:00:12;;;;;;;31.55;19.65;;;;;;;;;;10105126;28;20049;-78
2024/01/30 01:05:04;;;;;;;30.10;22.27;;;;;;;;;;10104145;28;20119;-78
2024/01/30 01:09:57;;;;;;;33.85;23.38;;;;;;;;;;10105094;28;20098;-77
2024/01/30 01:14:48;;;;;;;44.20;24.85;;;;;;;;;;10103318;28;20107;-77
2024/01/30 01:19:41;;;;;;;28.50;21.90;;;;;;;;;;10103227;28;20124;-78
2024/01/30 01:24:33;;;;;;;29.10;22.50;;;;;;;;;;10105203;28;20041;-77
2024/01/30 01:29:31;;;;;;;33.38;20.95;;;;;;;;;;10094447;28;20048;-77
2024/01/30 01:34:23;;;;;;;32.78;22.35;;;;;;;;;;10095790;28;20041;-77
2024/01/30 01:39:21;;;;;;;29.40;20.63;;;;;;;;;;10102762;28;20513;-77
2024/01/30 01:44:13;;;;;;;27.88;20.98;;;;;;;;;;10103307;28;20041;-77
2024/01/30 01:49:06;;;;;;;24.40;20.60;;;;;;;;;;10101399;28;20093;-77
2024/01/30 01:54:00;;;;;;;27.00;19.33;;;;;;;;;;10101893;28;20053;-77
2024/01/30 01:58:54;;;;;;;27.52;21.48;;;;;;;;;;10102148;28;20374;-77
2024/01/30 02:03:47;;;;;;;31.33;23.52;;;;;;;;;;10102990;28;20138;-76
2024/01/30 02:08:39;;;;;;;25.90;20.35;;;;;;;;;;10102461;28;20114;-77
2024/01/30 02:13:31;;;;;;;25.30;21.05;;;;;;;;;;10102100;28;20432;-77
2024/01/30 02:18:23;;;;;;;36.13;23.90;;;;;;;;;;10102199;28;20051;-77
2024/01/30 02:23:19;;;;;;;30.65;23.73;;;;;;;;;;10101667;28;20041;-77
2024/01/30 02:28:13;;;;;;;27.80;20.73;;;;;;;;;;10100624;28;20076;-77
2024/01/30 02:33:05;;;;;;;28.77;21.98;;;;;;;;;;10101123;28;20048;-76
2024/01/30 02:37:57;;;;;;;33.50;24.05;;;;;;;;;;10101474;28;20053;-77
2024/01/30 02:42:49;;;;;;;31.88;21.92;;;;;;;;;;10101646;28;20041;-77
2024/01/30 02:47:41;;;;;;;31.85;24.77;;;;;;;;;;10101884;28;20067;-77
2024/01/30 02:52:34;;;;;;;28.95;21.15;;;;;;;;;;10101192;28;20045;-77
2024/01/30 02:57:25;;;;;;;28.25;21.20;;;;;;;;;;10102178;28;20049;-77
2024/01/30 03:02:17;;;;;;;34.10;24.40;;;;;;;;;;10107922;28;20055;-76
2024/01/30 03:07:09;;;;;;;29.85;23.83;;;;;;;;;;10107740;28;20125;-76
2024/01/30 03:12:02;;;;;;;26.20;19.95;;;;;;;;;;10108997;28;20045;-77
2024/01/30 03:16:54;;;;;;;27.80;18.42;;;;;;;;;;10109895;28;20057;-77
2024/01/30 03:21:46;;;;;;;30.27;20.77;;;;;;;;;;10107417;28;20049;-76
2024/01/30 03:26:38;;;;;;;28.75;21.77;;;;;;;;;;10109326;28;20186;-76
2024/01/30 03:31:29;;;;;;;29.08;23.25;;;;;;;;;;10106991;28;20349;-76
2024/01/30 03:36:21;;;;;;;31.85;23.70;;;;;;;;;;10107673;28;20036;-77
2024/01/30 03:41:13;;;;;;;32.05;24.48;;;;;;;;;;10107700;28;20053;-76
2024/01/30 03:46:05;;;;;;;29.48;22.30;;;;;;;;;;10107468;28;20076;-76
2024/01/30 03:50:57;;;;;;;26.00;19.85;;;;;;;;;;10107084;28;20041;-77
2024/01/30 03:55:49;;;;;;;26.17;20.33;;;;;;;;;;10108143;28;20037;-76
2024/01/30 04:00:41;;;;;;;21.80;18.00;;;;;;;;;;10106147;28;20040;-76
2024/01/30 04:05:33;;;;;;;25.02;19.63;;;;;;;;;;10106540;28;20382;-76
2024/01/30 04:10:25;;;;;;;28.13;21.40;;;;;;;;;;10106672;28;20095;-76
2024/01/30 04:15:18;;;;;;;30.25;21.77;;;;;;;;;;10106387;28;20083;-76
2024/01/30 04:20:18;;;;;;;35.30;27.42;;;;;;;;;;10106339;28;20095;-77
2024/01/30 04:25:11;;;;;;;36.40;26.33;;;;;;;;;;10105323;28;20091;-76
2024/01/30 04:30:04;;;;;;;40.33;30.85;;;;;;;;;;10104952;28;20124;-76
2024/01/30 04:34:56;;;;;;;29.55;24.30;;;;;;;;;;10105481;28;20098;-76
2024/01/30 04:39:48;;;;;;;28.50;21.48;;;;;;;;;;10105299;28;20048;-76
2024/01/30 04:44:40;;;;;;;24.83;21.17;;;;;;;;;;10105861;28;20080;-76
2024/01/30 04:49:32;;;;;;;24.52;20.90;;;;;;;;;;10105274;28;20041;-76
2024/01/30 04:54:24;;;;;;;33.35;24.35;;;;;;;;;;10104276;28;20495;-76
2024/01/30 04:59:16;;;;;;;39.80;28.73;;;;;;;;;;10104850;28;20126;-76
2024/01/30 05:04:09;;;;;;;31.88;24.15;;;;;;;;;;10104584;28;20051;-76
2024/01/30 05:09:05;;;;;;;28.90;21.75;;;;;;;;;;10105085;28;20068;-76
2024/01/30 05:13:57;;;;;;;30.67;22.35;;;;;;;;;;10103837;28;20048;-77
2024/01/30 05:18:49;;;;;;;32.65;23.88;;;;;;;;;;10103667;28;20033;-76
2024/01/30 05:23:41;;;;;;;28.95;21.02;;;;;;;;;;10103014;28;20341;-76
2024/01/30 05:28:33;;;;;;;31.95;22.70;;;;;;;;;;10103652;28;20045;-76
2024/01/30 05:33:25;;;;;;;41.03;27.63;;;;;;;;;;10101341;28;20049;-76
2024/01/30 05:38:17;;;;;;;29.88;26.40;;;;;;;;;;10101897;28;20128;-77
2024/01/30 05:43:09;;;;;;;30.40;23.38;;;;;;;;;;10103524;28;20041;-77
2024/01/30 05:48:01;;;;;;;39.28;30.30;;;;;;;;;;10102263;28;20052;-76
2024/01/30 05:52:53;;;;;;;36.35;25.75;;;;;;;;;;10101655;28;20302;-76
2024/01/30 05:57:45;;;;;;;40.83;28.80;;;;;;;;;;10102003;28;20371;-77
2024/01/30 06:02:37;;;;;;;33.33;23.58;;;;;;;;;;10102334;28;20072;-76
2024/01/30 06:07:29;;;;;;;27.63;19.67;;;;;;;;;;10093596;28;20424;-77
2024/01/30 06:12:30;;;;;;;27.75;21.45;;;;;;;;;;10099462;28;20049;-77
2024/01/30 06:17:22;;;;;;;29.52;23.33;;;;;;;;;;10098531;28;20064;-77
2024/01/30 06:22:14;;;;;;;29.35;24.02;;;;;;;;;;10097530;28;20049;-77
2024/01/30 06:27:05;;;;;;;47.20;34.08;;;;;;;;;;10097920;28;20427;-77
2024/01/30 06:31:57;;;;;;;39.55;25.73;;;;;;;;;;10100519;28;20134;-77
2024/01/30 06:36:49;;;;;;;42.42;24.90;;;;;;;;;;10100726;28;20056;-78
2024/01/30 06:41:41;;;;;;;31.05;21.10;;;;;;;;;;10100318;28;20110;-77
2024/01/30 06:46:34;;;;;;;27.92;19.63;;;;;;;;;;10101377;28;20118;-77
2024/01/30 06:51:26;;;;;;;32.30;20.83;;;;;;;;;;10099810;28;20049;-77
2024/01/30 06:56:20;;;;;;;25.95;19.98;;;;;;;;;;10100322;28;20525;-77
2024/01/30 07:01:12;;;;;;;29.02;21.17;;;;;;;;;;10098868;28;20525;-77
2024/01/30 07:06:04;;;;;;;28.25;20.23;;;;;;;;;;10087934;28;20468;-77
2024/01/30 07:10:56;;;;;;;33.22;21.77;;;;;;;;;;10100303;28;20045;-77
2024/01/30 07:15:51;;;;;;;28.33;20.02;;;;;;;;;;10100034;28;20478;-77
2024/01/30 07:20:46;;;;;;;22.70;15.38;;;;;;;;;;10099206;28;20041;-77
2024/01/30 07:25:38;;;;;;;23.02;17.75;;;;;;;;;;10099713;28;20048;-78
2024/01/30 07:30:30;;;;;;;26.90;19.10;;;;;;;;;;10099132;28;20307;-78
2024/01/30 07:35:22;;;;;;;24.15;20.38;;;;;;;;;;10099431;28;20077;-78
2024/01/30 07:40:14;;;;;;;18.65;15.50;;;;;;;;;;10098999;28;20053;-77
2024/01/30 07:45:07;;;;;;;26.02;20.40;;;;;;;;;;10099826;28;20120;-77
2024/01/30 07:49:58;;;;;;;32.05;24.27;;;;;;;;;;10106569;28;20064;-76
2024/01/30 07:54:51;;;;;;;31.95;24.67;;;;;;;;;;10103171;28;20170;-76
2024/01/30 07:59:47;;;;;;;30.27;23.48;;;;;;;;;;10102517;28;20033;-75
2024/01/30 08:04:40;;;;;;;32.50;24.95;;;;;;;;;;10096260;28;20037;-76
2024/01/30 08:09:31;;;;;;;35.78;22.80;;;;;;;;;;10101822;28;20064;-76
2024/01/30 08:14:24;;;;;;;28.45;24.50;;;;;;;;;;10103530;28;20045;-79
2024/01/30 08:19:16;;;;;;;33.83;29.27;;;;;;;;;;10103979;28;20464;-79
2024/01/30 08:24:08;;;;;;;36.38;25.45;;;;;;;;;;10104937;28;20114;-79
2024/01/30 08:29:00;;;;;;;39.58;27.98;;;;;;;;;;10098379;28;20041;-79
2024/01/30 08:33:52;;;;;;;35.47;29.25;;;;;;;;;;10104306;28;20107;-79
2024/01/30 08:38:44;;;;;;;34.35;26.55;;;;;;;;;;10101780;28;20550;-79
2024/01/30 08:43:36;;;;;;;49.97;30.67;;;;;;;;;;10102431;28;20052;-79
2024/01/30 08:48:28;;;;;;;39.78;27.38;;;;;;;;;;10102537;28;20122;-79
2024/01/30 08:53:20;;;;;;;33.90;28.02;;;;;;;;;;10102736;28;20393;-79
2024/01/30 08:58:12;;;;;;;38.67;27.70;;;;;;;;;;10104797;28;20170;-79
2024/01/30 09:03:04;;;;;;;35.58;28.95;;;;;;;;;;10099565;28;20124;-79
2024/01/30 09:07:56;;;;;;;38.05;27.40;;;;;;;;;;10103089;28;20549;-80
2024/01/30 09:12:49;;;;;;;52.17;38.80;;;;;;;;;;10102809;28;20531;-80
2024/01/30 09:17:41;;;;;;;38.47;30.83;;;;;;;;;;10103102;28;20053;-79
2024/01/30 09:22:34;;;;;;;43.03;32.78;;;;;;;;;;10100950;28;20049;-79
2024/01/30 09:27:26;;;;;;;42.40;31.15;;;;;;;;;;10102617;28;20045;-79
2024/01/30 09:32:18;;;;;;;39.65;31.15;;;;;;;;;;10096120;28;20041;-79
2024/01/30 09:37:11;;;;;;;34.50;28.48;;;;;;;;;;10102188;28;20056;-79
2024/01/30 09:42:10;;;;;;;35.55;28.55;;;;;;;;;;10100452;28;20411;-78
2024/01/30 09:47:05;;;;;;;36.30;29.75;;;;;;;;;;10102020;28;20048;-79
2024/01/30 09:51:58;;;;;;;51.45;37.20;;;;;;;;;;10101821;28;20091;-79
2024/01/30 09:56:50;;;;;;;33.83;26.17;;;;;;;;;;10100870;28;20057;-79
2024/01/30 10:01:43;;;;;;;33.63;26.50;;;;;;;;;;10102237;28;20041;-78
2024/01/30 10:06:36;;;;;;;39.75;28.42;;;;;;;;;;10100366;28;20106;-78
2024/01/30 10:11:27;;;;;;;32.72;26.17;;;;;;;;;;10100182;28;20470;-78
2024/01/30 10:16:19;;;;;;;31.55;24.50;;;;;;;;;;10100237;28;20056;-79
2024/01/30 10:21:11;;;;;;;27.23;20.48;;;;;;;;;;10101487;28;20151;-79
2024/01/30 10:26:04;;;;;;;30.95;21.85;;;;;;;;;;10099177;28;20045;-78
2024/01/30 10:31:00;;;;;;;26.55;22.25;;;;;;;;;;10098018;28;20415;-78
2024/01/30 10:36:06;;;;;;;29.15;22.30;;;;;;;;;;10097518;28;20056;-78
2024/01/30 10:41:00;;;;;;;31.90;23.48;;;;;;;;;;10100129;28;20061;-78
2024/01/30 10:45:53;;;;;;;26.13;20.92;;;;;;;;;;10099860;28;20136;-78
2024/01/30 10:50:45;;;;;;;24.40;20.70;;;;;;;;;;10099130;28;20110;-78
2024/01/30 10:55:49;;;;;;;22.58;20.08;;;;;;;;;;10098678;28;20378;-79
2024/01/30 11:00:41;;;;;;;25.42;18.90;;;;;;;;;;10094280;28;20382;-78
2024/01/30 11:05:33;;;;;;;24.10;19.17;;;;;;;;;;10096730;28;20045;-79
2024/01/30 11:10:25;;;;;;;21.30;17.02;;;;;;;;;;10100121;28;20041;-79
2024/01/30 11:15:18;;;;;;;22.90;17.00;;;;;;;;;;10099270;28;20065;-79
2024/01/30 11:20:31;;;;;;;25.98;19.38;;;;;;;;;;10100667;28;20064;-79
2024/01/30 11:25:24;;;;;;;23.23;17.85;;;;;;;;;;10106963;28;20041;-79
2024/01/30 11:30:30;;;;;;;22.58;16.70;;;;;;;;;;10105797;28;20044;-79
2024/01/30 11:35:24;;;;;;;25.05;21.17;;;;;;;;;;10107557;28;20432;-78
2024/01/30 11:40:16;;;;;;;28.00;20.95;;;;;;;;;;10105192;28;20045;-79
2024/01/30 11:45:08;;;;;;;31.00;20.27;;;;;;;;;;10106560;28;20429;-79
2024/01/30 11:50:00;;;;;;;36.28;23.15;;;;;;;;;;10106447;28;20048;-79
2024/01/30 11:54:53;;;;;;;28.13;21.58;;;;;;;;;;10105558;28;20069;-79
2024/01/30 11:59:45;;;;;;;30.83;23.42;;;;;;;;;;10106176;28;20116;-78
2024/01/30 12:04:37;;;;;;;29.52;23.70;;;;;;;;;;10102381;28;20095;-80
2024/01/30 12:09:29;;;;;;;29.33;23.42;;;;;;;;;;10105565;28;20051;-80
2024/01/30 12:14:23;;;;;;;30.13;23.52;;;;;;;;;;10104991;28;20384;-79
2024/01/30 12:19:22;;;;;;;37.17;25.85;;;;;;;;;;10103369;28;20478;-79
2024/01/30 12:24:14;;;;;;;33.08;25.40;;;;;;;;;;10103052;28;20390;-77
2024/01/30 12:29:06;;;;;;;31.60;22.80;;;;;;;;;;10104394;28;20055;-77
2024/01/30 12:34:01;;;;;;;31.23;26.52;;;;;;;;;;10102974;28;20053;-77
2024/01/30 12:38:53;;;;;;;29.75;23.98;;;;;;;;;;10102635;28;20056;-77
2024/01/30 12:43:45;;;;;;;28.85;23.75;;;;;;;;;;10104303;28;20052;-77
2024/01/30 12:48:37;;;;;;;27.95;23.30;;;;;;;;;;10103677;28;20048;-77
2024/01/30 12:53:30;;;;;;;25.42;21.35;;;;;;;;;;10102676;28;20048;-77
2024/01/30 12:58:21;;;;;;;26.30;21.45;;;;;;;;;;10101252;28;20087;-77
2024/01/30 13:03:14;;;;;;;32.47;24.58;;;;;;;;;;10103078;28;20128;-77
2024/01/30 13:08:06;;;;;;;26.23;20.80;;;;;;;;;;10103775;28;20045;-76
2024/01/30 13:12:58;;;;;;;27.20;20.70;;;;;;;;;;10103115;28;20104;-76
2024/01/30 13:17:50;;;;;;;33.63;24.52;;;;;;;;;;10102848;28;20049;-77
2024/01/30 13:22:43;;;;;;;26.80;22.77;;;;;;;;;;10104125;28;20079;-77
2024/01/30 13:27:37;;;;;;;26.00;23.20;;;;;;;;;;10102620;28;20041;-81
2024/01/30 13:32:30;;;;;;;31.13;22.92;;;;;;;;;;10099675;28;20063;-77
2024/01/30 13:37:22;;;;;;;26.63;21.80;;;;;;;;;;10101816;28;20044;-79
2024/01/30 13:42:14;;;;;;;26.58;23.55;;;;;;;;;;10101258;28;20091;-79
2024/01/30 13:47:06;;;;;;;30.40;22.10;;;;;;;;;;10100484;28;20047;-79
2024/01/30 13:51:59;;;;;;;28.25;23.25;;;;;;;;;;10101592;28;20540;-79
2024/01/30 13:56:52;;;;;;;28.20;24.10;;;;;;;;;;10101731;28;20139;-79
2024/01/30 14:01:44;;;;;;;27.27;22.33;;;;;;;;;;10100045;28;20041;-78
2024/01/30 14:06:36;;;;;;;23.98;20.55;;;;;;;;;;10100944;28;20415;-79
2024/01/30 14:11:38;;;;;;;26.02;20.85;;;;;;;;;;10101320;28;20044;-79
2024/01/30 14:16:30;;;;;;;34.92;22.83;;;;;;;;;;10101142;28;20102;-75
2024/01/30 14:21:23;;;;;;;31.20;24.60;;;;;;;;;;10101096;28;20043;-76
2024/01/30 14:26:15;;;;;;;29.55;21.58;;;;;;;;;;10098990;28;20049;-74
2024/01/30 14:31:07;;;;;;;32.72;23.65;;;;;;;;;;10098345;28;20056;-70
2024/01/30 14:35:59;;;;;;;31.55;25.45;;;;;;;;;;10099288;28;20060;-74
2024/01/30 14:40:51;;;;;;;33.05;24.73;;;;;;;;;;10100096;28;20426;-77
2024/01/30 14:45:45;;;;;;;33.28;25.30;;;;;;;;;;10100494;28;20468;-74
2024/01/30 14:50:37;;;;;;;37.85;26.08;;;;;;;;;;10100414;28;20037;-74
2024/01/30 14:55:29;;;;;;;37.53;27.30;;;;;;;;;;10093102;28;20102;-74
2024/01/30 15:00:21;;;;;;;34.25;26.23;;;;;;;;;;10106968;28;20065;-75
2024/01/30 15:05:13;;;;;;;37.67;26.80;;;;;;;;;;10103833;28;20041;-74
2024/01/30 15:10:07;;;;;;;34.30;27.92;;;;;;;;;;10104874;28;20464;-72
2024/01/30 15:14:59;;;;;;;34.55;27.67;;;;;;;;;;10107395;28;20045;-72
2024/01/30 15:19:52;;;;;;;37.40;27.00;;;;;;;;;;10103058;28;20382;-74
2024/01/30 15:24:43;;;;;;;34.88;28.35;;;;;;;;;;10107136;28;20073;-73
2024/01/30 15:29:35;;;;;;;38.53;31.05;;;;;;;;;;10107759;28;20080;-75
2024/01/30 15:34:27;;;;;;;36.80;28.85;;;;;;;;;;10105719;28;20456;-75
2024/01/30 15:39:19;;;;;;;41.67;32.00;;;;;;;;;;10107706;28;20076;-75
2024/01/30 15:44:11;;;;;;;34.55;28.90;;;;;;;;;;10102835;28;20430;-75
2024/01/30 15:49:04;;;;;;;50.83;35.95;;;;;;;;;;10107048;28;20136;-75
2024/01/30 15:53:56;;;;;;;95.55;57.60;;;;;;;;;;10106604;28;20056;-75
2024/01/30 15:58:49;;;;;;;61.63;42.45;;;;;;;;;;10106215;28;20144;-74
2024/01/30 16:03:41;;;;;;;125.07;83.70;;;;;;;;;;10104514;28;20420;-74
2024/01/30 16:08:33;;;;;;;36.30;29.60;;;;;;;;;;10106278;28;20037;-74
2024/01/30 16:13:25;;;;;;;43.50;32.22;;;;;;;;;;10104028;28;20120;-74
2024/01/30 16:18:17;;;;;;;30.40;26.55;;;;;;;;;;10106337;28;20152;-75
2024/01/30 16:23:09;;;;;;;50.65;37.17;;;;;;;;;;10106065;28;20103;-75
2024/01/30 16:28:01;;;;;;;40.47;30.92;;;;;;;;;;10105359;28;20455;-73
2024/01/30 16:32:54;;;;;;;39.45;30.98;;;;;;;;;;10097105;28;20053;-74
2024/01/30 16:37:46;;;;;;;48.60;35.25;;;;;;;;;;10104547;28;20106;-73
2024/01/30 16:42:38;;;;;;;37.10;30.88;;;;;;;;;;10104549;28;20063;-74
2024/01/30 16:47:30;;;;;;;50.15;33.85;;;;;;;;;;10104906;28;20041;-74
2024/01/30 16:52:22;;;;;;;67.50;54.85;;;;;;;;;;10104449;28;20115;-74
2024/01/30 16:57:14;;;;;;;41.33;31.95;;;;;;;;;;10103088;28;20049;-74
2024/01/30 17:02:06;;;;;;;58.42;46.83;;;;;;;;;;10091760;28;20578;-75
2024/01/30 17:06:59;;;;;;;40.88;33.50;;;;;;;;;;10103521;28;20114;-74
2024/01/30 17:11:51;;;;;;;43.28;31.27;;;;;;;;;;10091839;28;20087;-74
2024/01/30 17:16:45;;;;;;;41.15;33.83;;;;;;;;;;10103549;28;20057;-79
2024/01/30 17:21:42;;;;;;;41.60;34.53;;;;;;;;;;10104185;28;20099;-75
2024/01/30 17:26:34;;;;;;;44.75;36.30;;;;;;;;;;10101232;28;20135;-76
2024/01/30 17:31:26;;;;;;;42.97;33.72;;;;;;;;;;10101798;28;20043;-76
2024/01/30 17:36:18;;;;;;;40.55;34.47;;;;;;;;;;10095527;28;20140;-78
2024/01/30 17:41:09;;;;;;;53.25;43.78;;;;;;;;;;10101882;28;20167;-77
2024/01/30 17:46:04;;;;;;;49.53;40.85;;;;;;;;;;10099992;28;20080;-76
2024/01/30 17:50:56;;;;;;;47.72;36.17;;;;;;;;;;10101817;28;20041;-76
2024/01/30 17:55:47;;;;;;;50.80;37.63;;;;;;;;;;10088209;28;20045;-76
2024/01/30 18:00:40;;;;;;;45.25;34.92;;;;;;;;;;10099526;28;20048;-77
2024/01/30 18:05:32;;;;;;;46.70;35.90;;;;;;;;;;10099697;28;20045;-76
2024/01/30 18:10:24;;;;;;;43.25;33.17;;;;;;;;;;10098296;28;20412;-76
2024/01/30 18:15:16;;;;;;;43.30;34.90;;;;;;;;;;10098350;28;20048;-77
2024/01/30 18:20:08;;;;;;;45.05;36.58;;;;;;;;;;10100417;28;20094;-76
2024/01/30 18:25:00;;;;;;;40.42;30.98;;;;;;;;;;10100101;28;20456;-76
2024/01/30 18:29:52;;;;;;;40.58;29.33;;;;;;;;;;10099853;28;20049;-76
2024/01/30 18:34:50;;;;;;;39.28;29.73;;;;;;;;;;10094401;28;20128;-77
2024/01/30 18:39:44;;;;;;;45.22;36.10;;;;;;;;;;10088915;28;20049;-75
2024/01/30 18:44:36;;;;;;;42.28;33.85;;;;;;;;;;10096210;28;20094;-75
2024/01/30 18:49:27;;;;;;;44.58;36.00;;;;;;;;;;10094903;28;20085;-76
2024/01/30 18:54:20;;;;;;;43.60;33.92;;;;;;;;;;10097303;28;20054;-76
2024/01/30 18:59:18;;;;;;;45.63;36.42;;;;;;;;;;10094300;28;20049;-76
2024/01/30 19:04:11;;;;;;;45.35;36.78;;;;;;;;;;10094451;28;20443;-76
2024/01/30 19:09:09;;;;;;;46.47;36.92;;;;;;;;;;10083533;28;20193;-75
2024/01/30 19:14:01;;;;;;;45.28;38.15;;;;;;;;;;10094546;28;20033;-75
2024/01/30 19:18:53;;;;;;;49.90;39.17;;;;;;;;;;10089373;28;20144;-76
2024/01/30 19:23:45;;;;;;;52.33;42.40;;;;;;;;;;10093475;28;20055;-76
2024/01/30 19:28:38;;;;;;;49.85;39.33;;;;;;;;;;10085659;28;20049;-76
2024/01/30 19:33:30;;;;;;;47.80;39.47;;;;;;;;;;10092541;28;20574;-76
2024/01/30 19:38:24;;;;;;;65.97;48.45;;;;;;;;;;10088422;28;20051;-76
2024/01/30 19:43:16;;;;;;;62.17;44.05;;;;;;;;;;10096665;28;20576;-76
2024/01/30 19:48:08;;;;;;;52.05;41.45;;;;;;;;;;10096672;28;20132;-75
2024/01/30 19:53:00;;;;;;;48.85;39.80;;;;;;;;;;10102093;28;20475;-75
2024/01/30 19:57:53;;;;;;;53.75;41.25;;;;;;;;;;10093949;28;20041;-76
2024/01/30 20:02:45;;;;;;;40.90;33.53;;;;;;;;;;10102127;28;20425;-77
2024/01/30 20:07:37;;;;;;;51.72;38.45;;;;;;;;;;10091991;28;20038;-76
2024/01/30 20:12:29;;;;;;;50.17;36.90;;;;;;;;;;10105495;28;20033;-76
2024/01/30 20:17:21;;;;;;;48.13;34.53;;;;;;;;;;10098020;28;20047;-76
2024/01/30 20:22:12;;;;;;;40.85;35.00;;;;;;;;;;10100844;28;20076;-75
2024/01/30 20:27:06;;;;;;;39.55;33.45;;;;;;;;;;10095218;28;20051;-76
2024/01/30 20:31:58;;;;;;;42.45;34.83;;;;;;;;;;10102256;28;20152;-76
2024/01/30 20:36:51;;;;;;;40.78;33.28;;;;;;;;;;10105036;28;20048;-76
2024/01/30 20:41:44;;;;;;;43.42;33.05;;;;;;;;;;10105430;28;20056;-76
2024/01/30 20:46:36;;;;;;;42.17;34.10;;;;;;;;;;10106412;28;20128;-76
2024/01/30 20:51:28;;;;;;;40.05;31.02;;;;;;;;;;10102015;28;20055;-76
2024/01/30 20:56:22;;;;;;;39.95;30.48;;;;;;;;;;10103973;28;20045;-76
2024/01/30 21:01:14;;;;;;;47.45;33.22;;;;;;;;;;10100277;28;20051;-76
2024/01/30 21:06:09;;;;;;;41.83;32.38;;;;;;;;;;10099448;28;20053;-79
2024/01/30 21:11:02;;;;;;;40.72;31.08;;;;;;;;;;10099159;28;20042;-76
2024/01/30 21:15:54;;;;;;;37.78;29.20;;;;;;;;;;10101636;28;20136;-76
2024/01/30 21:20:46;;;;;;;53.42;36.63;;;;;;;;;;10099157;28;20040;-76
2024/01/30 21:25:43;;;;;;;38.30;29.05;;;;;;;;;;10102742;28;20045;-76
2024/01/30 21:30:34;;;;;;;38.63;32.00;;;;;;;;;;10105181;28;20045;-76
2024/01/30 21:35:26;;;;;;;41.85;33.03;;;;;;;;;;10081783;28;20471;-76
2024/01/30 21:40:18;;;;;;;40.00;29.88;;;;;;;;;;10102599;28;20529;-76
2024/01/30 21:45:14;;;;;;;38.85;31.80;;;;;;;;;;10094860;28;20040;-76
2024/01/30 21:50:06;;;;;;;33.85;29.00;;;;;;;;;;10084309;28;20041;-77
2024/01/30 21:54:59;;;;;;;39.50;31.48;;;;;;;;;;10074208;28;20037;-76
2024/01/30 21:59:51;;;;;;;30.98;26.35;;;;;;;;;;10090257;28;20510;-76
2024/01/30 22:04:43;;;;;;;44.05;31.25;;;;;;;;;;10089496;28;20048;-76
2024/01/30 22:09:39;;;;;;;49.28;27.15;;;;;;;;;;10084529;28;20049;-76
2024/01/30 22:14:31;;;;;;;27.20;22.50;;;;;;;;;;10081600;28;20041;-76
2024/01/30 22:19:26;;;;;;;45.47;26.48;;;;;;;;;;10077651;28;20048;-76
2024/01/30 22:24:19;;;;;;;31.17;24.67;;;;;;;;;;10071950;28;20087;-76
2024/01/30 22:29:11;;;;;;;37.40;24.75;;;;;;;;;;10077803;28;20107;-76
2024/01/30 22:34:03;;;;;;;33.97;24.70;;;;;;;;;;10095741;28;20036;-76
2024/01/30 22:38:56;;;;;;;31.40;23.98;;;;;;;;;;10100541;28;20056;-76
2024/01/30 22:43:48;;;;;;;31.27;24.38;;;;;;;;;;10100868;28;20091;-76
2024/01/30 22:48:40;;;;;;;29.15;25.48;;;;;;;;;;10100832;28;20037;-76
2024/01/30 22:53:32;;;;;;;36.17;28.13;;;;;;;;;;10100820;28;20487;-76
2024/01/30 22:58:24;;;;;;;31.83;24.58;;;;;;;;;;10100288;28;20368;-76
2024/01/30 23:03:17;;;;;;;31.80;25.13;;;;;;;;;;10103221;28;20033;-76
2024/01/30 23:08:09;;;;;;;32.97;25.00;;;;;;;;;;10100649;28;20099;-76
2024/01/30 23:13:00;;;;;;;30.55;25.40;;;;;;;;;;10098962;28;20158;-76
2024/01/30 23:17:52;;;;;;;34.00;27.05;;;;;;;;;;10106434;28;20055;-76
2024/01/30 23:22:44;;;;;;;29.52;23.83;;;;;;;;;;10108426;28;20037;-76
2024/01/30 23:27:37;;;;;;;32.72;25.70;;;;;;;;;;10108091;28;20044;-76
2024/01/30 23:32:29;;;;;;;31.30;23.58;;;;;;;;;;10107536;28;20431;-76
2024/01/30 23:37:33;;;;;;;33.47;25.00;;;;;;;;;;10106845;28;20053;-76
2024/01/30 23:42:25;;;;;;;28.98;23.30;;;;;;;;;;10106396;28;20397;-76
2024/01/30 23:47:17;;;;;;;35.42;23.48;;;;;;;;;;10108836;28;20068;-76
2024/01/30 23:52:09;;;;;;;29.75;22.95;;;;;;;;;;10105938;28;20645;-76
2024/01/30 23:57:01;;;;;;;31.27;23.98;;;;;;;;;;10105744;28;20388;-76
